LQSALDZA

Guest
Details From LQSA - Sarajevo
To LDZA - Zagreb
Flight Number -
Tags Standard
Created
Modified
Stats Distance 152 nm / 281 km
Max Altitude 20,153 ft / 6,143 m
Waypoints 7
Social Downloads 5
Likes 0
Share VATSIM

Download

Looking for another format? Having issues loading an existing format? Contact us
Advertisement - Login to hide

Notes

None

Route

LQSA BOSNA +44.40_+017.71 KOMAR +44.97_+016.80 TEBLI LDZA

ID Type Via Altitude Latitude Longitude Leg Dist Tot Dist Heading (true) Name
O LQSA APT - 1,708 ft / 521 m 43.82460˚ 18.33150˚ - 0 nm - Sarajevo
BOSNA FIX - 18,988 ft / 5,788 m 44.37056˚ 17.75972˚ 41 nm 41 nm 323° / 323° -
+44.40_+017.71 DME - 20,153 ft / 6,143 m 44.40334˚ 17.70693˚ 3 nm 44 nm 311° / 311° -
KOMAR FIX - 20,153 ft / 6,143 m 44.95806˚ 16.80417˚ 50 nm 94 nm 311° / 311° -
+44.97_+016.80 DME - 20,153 ft / 6,143 m 44.96640˚ 16.79718˚ 0 nm 95 nm 329° / 329° -
TEBLI FIX - 14,753 ft / 4,497 m 45.20139˚ 16.67583˚ 15 nm 110 nm 340° / 340° -
O LDZA APT - 353 ft / 108 m 45.74189˚ 16.06720˚ 41 nm 151 nm 322° / 321° Zagreb

Altitude Profile

Advertisement - Login to hide

LQSA

Details ICAO LQSA (SJJ)
Name Sarajevo
Region Bosnia and Herzegovinia
Timezone Europe/Sarajevo (UTC+1.0)
Stats Elevation 1,708 ft / 521 m (AMSL)
Location 43.824597° 18.331500°
Runways 1
Magnetic Variation 4.222° E

METAR

LQSA 151800Z 11008KT 9999 -RA FEW015 BKN035 OVC050 09/07 Q1000 RERA NOSIG

Decode

TAF

Not found

Departure Runways

ID Width Length Bearing (true) Bearing (mag) Surface Threshold Offset Overrun Length
12 150 ft / 46 m 8,519 ft / 2,597 m 117.41° 113.19° Asphalt 333 ft / 102 m 0 ft / 0 m
30 150 ft / 46 m 8,519 ft / 2,597 m 297.43° 293.21° Asphalt 666 ft / 203 m 0 ft / 0 m

LDZA

Details ICAO LDZA (ZAG)
Name Zagreb
Region Croatia
Timezone Europe/Zagreb (UTC+1.0)
Stats Elevation 353 ft / 108 m (AMSL)
Location 45.741890° 16.067200°
Runways 1
Magnetic Variation 3.959° E

METAR

LDZA 151800Z 04014KT 010V070 8000 +RA BKN011 OVC035 06/05 Q0999 BECMG RA

Decode

TAF

TAF LDZA 151725Z 1518/1618 03010KT 9999 FEW015 BKN040 TX06/1518Z TN00/1601Z TEMPO 1518/1609 RA BKN014 PROB40 TEMPO 1521/1608 3000 -SNRA BKN005 OVC010 BECMG 1606/1608 VRB02KT

Decode

Destination Runways

ID Width Length Bearing (true) Bearing (mag) Surface Threshold Offset Overrun Length
05 148 ft / 45 m 10,659 ft / 3,249 m 46.69° 42.73° Asphalt 0 ft / 0 m 195 ft / 59 m
23 148 ft / 45 m 10,659 ft / 3,249 m 226.71° 222.75° Asphalt 0 ft / 0 m 195 ft / 59 m

Approach Navaids

Runway Type Ident Frequency Range Bearing (true) Bearing (mag) Slope Elevation
05 Localiser IZA 109.50 MHz 25 nm / 46 km 46.79° 42.83° - 335 ft / 102 m (AMSL)
05 Glidescope IZA 109.50 MHz 25 nm / 46 km 46.79° 42.83° 3.00° 344 ft / 105 m (AMSL)
05 DME IZA 109.50 MHz 25 nm / 46 km - - - 372 ft / 113 m (AMSL)
23 Localiser IZG 109.10 MHz 25 nm / 46 km 226.81° 222.85° - 344 ft / 105 m (AMSL)
23 Glidescope IZG 109.10 MHz 25 nm / 46 km 226.81° 222.85° 3.00° 344 ft / 105 m (AMSL)

Popular Alternatives